»·PEaware :: UAL1399 KFAT-KLAX

UAL1399 :: KFAT-KLAX

FLIGHT INFORMATION

Flight Status: Arrived
Operator:
United Airlines
More flights by this operator :: More flights under this callsign
Pilot: David C. (16084)
Aircraft: AIRBUS A320
(A320)
More flights by this aircraft type
Origin: KFAT Fresno Yosemite Intl
United States
Destination: KLAX Los Angeles Intl
United States
More flights between these airports :: More routes between these airports
Route: +CZQ FRAME PONDD TAFTO MUPTT IRNMN2
File this flight plan on PilotEdge
Remarks:
Altitude:
(Current/Filed)
27,000ft
Speed:
(Current/Filed)
493kts
Departed: 25-Jun-18 09:33 AM
Arrived: 25-Jun-18 10:17 AM
Distance/Time
Traveled:
182nm/0:44
Distance/Time
To Go:
Arrived

Flight Plot

Page will automatically refresh every two minutes.

Flight plan parsing failed; only flown route is shown


Map Options




Map Legend


Flown Route
Filed Route
Departure Airport
Arrival Airport
Navaid (VOR, NDB)
Fix

Horizontal Profiles

Position Reports

Time Latitude Longitude Heading Altitude Ground
Speed
25-Jun-18 09:01 36.770888 -119.718072 36 344ft 0kts
25-Jun-18 09:02 36.770888 -119.718072 36 344ft 0kts
25-Jun-18 09:03 36.770888 -119.718072 36 344ft 0kts
25-Jun-18 09:04 36.770888 -119.718072 36 344ft 0kts
25-Jun-18 09:05 36.770888 -119.718072 36 344ft 0kts
25-Jun-18 09:06 36.770888 -119.718072 36 344ft 0kts
25-Jun-18 09:07 36.770888 -119.718072 36 344ft 0kts
25-Jun-18 09:08 36.770888 -119.718072 36 344ft 0kts
25-Jun-18 09:09 36.770888 -119.718072 36 344ft 0kts
25-Jun-18 09:10 36.770888 -119.718072 36 344ft 0kts
25-Jun-18 09:11 36.770888 -119.718072 36 344ft 0kts
25-Jun-18 09:12 36.770888 -119.718072 36 344ft 0kts
25-Jun-18 09:13 36.770888 -119.718072 36 344ft 0kts
25-Jun-18 09:14 36.770888 -119.718072 36 344ft 0kts
25-Jun-18 09:15 36.770888 -119.718072 36 344ft 0kts
25-Jun-18 09:16 36.770888 -119.718072 36 344ft 0kts
25-Jun-18 09:17 36.770888 -119.718072 36 344ft 0kts
25-Jun-18 09:18 36.770888 -119.718072 36 344ft 0kts
25-Jun-18 09:19 36.770888 -119.718072 36 344ft 0kts
25-Jun-18 09:20 36.770888 -119.718072 36 344ft 0kts
25-Jun-18 09:21 36.770888 -119.718072 36 344ft 0kts
25-Jun-18 09:22 36.770888 -119.718072 36 344ft 0kts
25-Jun-18 09:23 36.770888 -119.718072 36 344ft 0kts
25-Jun-18 09:24 36.770888 -119.718072 36 344ft 0kts
25-Jun-18 09:25 36.770888 -119.718072 36 344ft 0kts
25-Jun-18 09:26 36.771924 -119.716341 56 344ft 18kts
25-Jun-18 09:27 36.768314 -119.709080 125 344ft 21kts
25-Jun-18 09:28 36.768118 -119.704351 35 344ft 0kts
25-Jun-18 09:29 36.768118 -119.704351 35 344ft 0kts
25-Jun-18 09:30 36.768118 -119.704351 35 344ft 0kts
25-Jun-18 09:31 36.768118 -119.704351 35 344ft 0kts
25-Jun-18 09:32 36.768676 -119.703894 22 344ft 10kts
25-Jun-18 09:33 36.781380 -119.725804 304 989ft 165kts
25-Jun-18 09:34 36.811900 -119.780025 305 4125ft 210kts
25-Jun-18 09:35 36.840365 -119.832938 305 6980ft 226kts
25-Jun-18 09:36 36.869468 -119.893633 278 9718ft 244kts
25-Jun-18 09:37 36.826265 -119.937292 154 12004ft 235kts
25-Jun-18 09:38 36.774326 -119.875680 133 12296ft 289kts
25-Jun-18 09:39 36.715949 -119.802157 134 15266ft 308kts
25-Jun-18 09:40 36.654398 -119.725179 135 18196ft 321kts
25-Jun-18 09:41 36.583290 -119.658133 157 20757ft 332kts
25-Jun-18 09:42 36.496899 -119.613475 158 23066ft 345kts
25-Jun-18 09:43 36.406911 -119.566944 159 25128ft 358kts
25-Jun-18 09:44 36.313462 -119.518751 159 26915ft 373kts
25-Jun-18 09:45 36.210762 -119.466033 159 27053ft 427kts
25-Jun-18 09:46 36.095851 -119.407100 159 27044ft 467kts
25-Jun-18 09:47 35.975063 -119.345266 159 27050ft 474kts
25-Jun-18 09:48 35.854759 -119.284805 163 27042ft 472kts
25-Jun-18 09:49 35.727618 -119.276609 185 27052ft 466kts
25-Jun-18 09:50 35.598921 -119.287625 185 27025ft 464kts
25-Jun-18 09:51 35.470251 -119.298635 185 27021ft 465kts
25-Jun-18 09:52 35.341799 -119.309604 185 27028ft 466kts
25-Jun-18 09:53 35.216130 -119.320299 185 27043ft 466kts
25-Jun-18 09:54 35.086920 -119.325787 181 27050ft 467kts
25-Jun-18 09:55 34.958891 -119.314413 161 26922ft 476kts
25-Jun-18 09:56 34.845902 -119.247529 154 25984ft 481kts
25-Jun-18 09:57 34.731253 -119.178221 154 24316ft 472kts
25-Jun-18 09:58 34.613946 -119.107756 154 24099ft 476kts
25-Jun-18 09:59 34.497324 -119.037879 154 23533ft 472kts
25-Jun-18 10:00 34.383341 -118.969776 154 20766ft 455kts
25-Jun-18 10:01 34.277907 -118.906930 153 17222ft 384kts
25-Jun-18 10:02 34.200010 -118.842421 143 15610ft 315kts
25-Jun-18 10:03 34.134677 -118.777370 137 13059ft 301kts
25-Jun-18 10:04 34.073703 -118.711207 138 10750ft 295kts
25-Jun-18 10:05 34.026952 -118.636864 97 9302ft 283kts
25-Jun-18 10:06 34.018410 -118.544162 97 8017ft 274kts
25-Jun-18 10:07 34.010867 -118.461571 92 7227ft 228kts
25-Jun-18 10:08 34.021659 -118.391348 79 6425ft 236kts
25-Jun-18 10:09 34.031254 -118.319813 84 5403ft 223kts
25-Jun-18 10:10 34.037423 -118.251067 96 4036ft 190kts
25-Jun-18 10:11 34.009722 -118.207214 159 2684ft 167kts
25-Jun-18 10:12 33.965993 -118.216310 220 1908ft 168kts
25-Jun-18 10:13 33.949433 -118.267320 261 1902ft 169kts
25-Jun-18 10:14 33.943999 -118.319469 261 1151ft 146kts
25-Jun-18 10:15 33.939211 -118.365126 260 440ft 136kts
25-Jun-18 10:16 33.935159 -118.403424 262 134ft 42kts
25-Jun-18 10:17 33.935529 -118.407379 348 134ft 0kts
25-Jun-18 10:18 33.935529 -118.407379 348 134ft 0kts
25-Jun-18 10:19 33.936820 -118.408983 351 134ft 16kts
25-Jun-18 10:20 33.939075 -118.405207 84 134ft 22kts
25-Jun-18 10:21 33.940368 -118.399770 31 134ft 0kts
25-Jun-18 10:22 33.940368 -118.399770 31 134ft 0kts

Navigation Log

Ident Type
Flight plan parsing failed, navigation log unavailable